Time;durP1;ratioP1;P1;durP2;ratioP2;P2;SDS_P1;SDS_P2;PMS_P1;PMS_P2;Temp;Humidity;BMP_temperature;BMP_pressure;BME280_temperature;BME280_humidity;BME280_pressure;Samples;Min_cycle;Max_cycle;Signal;HPM_P1;HPM_P2
2022/11/13 00:01:51;;;;;;;16.23;12.43;;;;;;;9.32;57.21;98450.50;5024313;28;20215;-72
2022/11/13 00:04:16;;;;;;;17.80;12.40;;;;;;;9.27;56.92;98455.25;5030141;28;20547;-68
2022/11/13 00:06:42;;;;;;;19.50;12.37;;;;;;;9.17;57.66;98446.41;5024761;28;20187;-71
2022/11/13 00:09:10;;;;;;;15.03;11.40;;;;;;;9.20;57.76;98444.41;5028939;28;20207;-72
2022/11/13 00:11:35;;;;;;;14.80;12.00;;;;;;;9.17;57.80;98443.78;5032575;28;20701;-71
2022/11/13 00:14:00;;;;;;;16.57;12.50;;;;;;;9.19;57.33;98434.06;5031573;28;20556;-70
2022/11/13 00:16:26;;;;;;;14.30;11.80;;;;;;;9.17;57.42;98430.72;5030655;28;20203;-70
2022/11/13 00:18:51;;;;;;;17.27;11.27;;;;;;;9.11;57.78;98426.78;4994857;28;20539;-71
2022/11/13 00:21:26;;;;;;;17.20;11.50;;;;;;;9.10;57.31;98430.34;5029650;28;20326;-71
2022/11/13 00:23:51;;;;;;;16.57;11.80;;;;;;;9.11;57.97;98433.75;5031884;28;20229;-70
2022/11/13 00:26:26;;;;;;;16.53;11.50;;;;;;;9.10;57.86;98413.78;5031173;28;20867;-70
2022/11/13 00:28:53;;;;;;;16.90;11.03;;;;;;;9.06;58.25;98424.50;5032015;28;20179;-70
2022/11/13 00:31:19;;;;;;;16.53;12.20;;;;;;;9.10;58.30;98426.88;5031254;28;20426;-70
2022/11/13 00:33:44;;;;;;;18.37;10.87;;;;;;;9.14;58.49;98425.69;5031710;28;20630;-70
2022/11/13 00:36:14;;;;;;;17.90;12.57;;;;;;;9.08;57.53;98424.38;5032207;28;20238;-70
2022/11/13 00:38:39;;;;;;;15.13;10.83;;;;;;;9.05;57.91;98417.59;5030816;28;20207;-70
2022/11/13 00:41:05;;;;;;;15.33;10.33;;;;;;;8.98;58.09;98413.75;5037031;28;20460;-70
2022/11/13 00:43:30;;;;;;;14.20;10.57;;;;;;;9.03;57.96;98414.25;5031391;28;20609;-70
2022/11/13 00:45:56;;;;;;;14.10;10.27;;;;;;;9.04;57.80;98415.91;5031178;28;20199;-70
2022/11/13 00:48:21;;;;;;;19.27;11.30;;;;;;;9.05;57.00;98409.75;5029797;28;20191;-70
2022/11/13 00:50:47;;;;;;;15.17;11.27;;;;;;;8.99;56.91;98407.56;5030899;28;20176;-70
2022/11/13 00:53:12;;;;;;;14.83;10.30;;;;;;;8.86;57.96;98406.81;5028684;28;20357;-69
2022/11/13 00:55:38;;;;;;;16.93;11.23;;;;;;;8.87;57.75;98403.25;5024591;28;20206;-72
2022/11/13 00:58:03;;;;;;;15.20;10.90;;;;;;;8.83;57.12;98396.56;5030542;28;20697;-71
2022/11/13 01:00:30;;;;;;;20.10;11.50;;;;;;;8.68;57.34;98390.69;5030085;28;20176;-70
2022/11/13 01:02:57;;;;;;;14.87;10.20;;;;;;;8.71;57.68;98391.28;5030635;28;20290;-71
2022/11/13 01:05:22;;;;;;;14.47;10.63;;;;;;;8.68;57.61;98388.06;5030430;28;20440;-71
2022/11/13 01:07:48;;;;;;;12.60;9.87;;;;;;;8.65;57.69;98383.91;5030393;28;20423;-70
2022/11/13 01:10:14;;;;;;;13.93;10.30;;;;;;;8.65;57.95;98383.91;5031023;28;20199;-70
2022/11/13 01:12:39;;;;;;;15.67;10.10;;;;;;;8.71;57.70;98385.22;5025974;28;20195;-70
2022/11/13 01:15:05;;;;;;;17.90;10.40;;;;;;;8.74;57.14;98383.22;5037749;28;20267;-70
2022/11/13 01:17:30;;;;;;;16.37;10.23;;;;;;;8.75;57.50;98379.66;5029030;28;20179;-70
2022/11/13 01:19:56;;;;;;;12.13;9.40;;;;;;;8.74;57.55;98385.84;5029204;28;20209;-72
2022/11/13 01:22:21;;;;;;;11.60;9.70;;;;;;;8.68;57.67;98377.59;5030414;28;20183;-70
2022/11/13 01:24:47;;;;;;;12.23;9.87;;;;;;;8.66;57.43;98374.25;5030827;28;20203;-70
2022/11/13 01:27:14;;;;;;;12.90;9.80;;;;;;;8.63;57.02;98374.50;5029831;28;20242;-71
2022/11/13 01:29:39;;;;;;;16.63;9.57;;;;;;;8.53;56.93;98369.09;5027579;28;20188;-71
2022/11/13 01:32:05;;;;;;;13.50;10.50;;;;;;;8.55;57.09;98362.00;5027084;28;20978;-70
2022/11/13 01:34:30;;;;;;;15.90;9.90;;;;;;;8.59;57.18;98360.81;5030166;28;20242;-70
2022/11/13 01:36:57;;;;;;;14.27;9.60;;;;;;;8.59;57.44;98356.44;5029335;28;20265;-70
2022/11/13 01:39:22;;;;;;;14.80;9.53;;;;;;;8.63;57.54;98351.00;5030437;28;20514;-70
2022/11/13 01:41:48;;;;;;;15.87;8.97;;;;;;;8.58;57.10;98357.38;5036373;28;20262;-70
2022/11/13 01:44:16;;;;;;;13.17;9.20;;;;;;;8.58;57.49;98343.47;5030270;28;20271;-70
2022/11/13 01:46:43;;;;;;;10.60;8.90;;;;;;;8.55;56.90;98346.31;5029021;28;20271;-69
2022/11/13 01:49:08;;;;;;;10.80;8.60;;;;;;;8.55;57.51;98347.13;5029966;28;20444;-71
2022/11/13 01:51:45;;;;;;;10.77;8.57;;;;;;;8.54;57.59;98344.66;5030238;28;20498;-68
2022/11/13 01:54:15;;;;;;;9.30;7.70;;;;;;;8.51;57.85;98337.03;5021364;28;20206;-71
2022/11/13 01:56:40;;;;;;;13.20;8.20;;;;;;;8.42;57.70;98344.56;5029713;28;21159;-70
2022/11/13 01:59:13;;;;;;;11.90;7.63;;;;;;;8.45;58.12;98336.47;5028176;28;20429;-70
2022/11/13 02:01:39;;;;;;;10.30;8.17;;;;;;;8.35;57.76;98332.88;5027696;28;20186;-71
2022/11/13 02:04:04;;;;;;;9.23;8.23;;;;;;;8.40;57.82;98322.94;5028584;28;20521;-70
2022/11/13 02:06:52;;;;;;;9.67;7.53;;;;;;;8.38;57.29;98327.44;5030951;28;20186;-69
2022/11/13 02:09:20;;;;;;;9.83;8.20;;;;;;;8.26;57.22;98326.53;5028324;28;20196;-69
2022/11/13 02:11:46;;;;;;;9.63;8.20;;;;;;;8.25;57.99;98313.59;5029725;28;21041;-70
2022/11/13 02:14:13;;;;;;;10.33;7.50;;;;;;;8.18;57.56;98318.41;5036817;28;20514;-70
2022/11/13 02:16:40;;;;;;;9.40;8.00;;;;;;;8.21;57.26;98318.19;5027755;28;20230;-70
2022/11/13 02:19:12;;;;;;;12.93;8.23;;;;;;;8.19;57.30;98314.03;5028706;28;20423;-71
2022/11/13 02:21:46;;;;;;;10.70;7.77;;;;;;;8.13;57.61;98307.44;5021931;28;20442;-71
2022/11/13 02:24:15;;;;;;;9.77;7.80;;;;;;;8.24;57.05;98307.53;5036899;28;20460;-70
2022/11/13 02:26:41;;;;;;;10.63;7.83;;;;;;;8.19;57.28;98300.97;5028194;28;20418;-70
2022/11/13 02:29:07;;;;;;;9.60;8.13;;;;;;;7.99;57.30;98304.06;5031127;28;20446;-70
2022/11/13 02:31:32;;;;;;;11.90;8.07;;;;;;;8.08;57.94;98296.53;5034057;28;20866;-70
2022/11/13 02:34:00;;;;;;;10.20;7.80;;;;;;;8.13;57.01;98287.41;5033832;28;20306;-71
2022/11/13 02:36:27;;;;;;;9.37;7.57;;;;;;;8.10;56.94;98292.84;5032575;28;20327;-71
2022/11/13 02:38:53;;;;;;;11.00;8.57;;;;;;;8.06;57.41;98294.03;5032597;28;20511;-71
2022/11/13 02:41:18;;;;;;;9.10;7.33;;;;;;;7.97;57.48;98285.06;5037953;28;21109;-70
2022/11/13 02:43:44;;;;;;;9.27;7.70;;;;;;;7.99;56.93;98287.56;5032721;28;20450;-70
2022/11/13 02:46:09;;;;;;;10.63;8.03;;;;;;;8.02;57.14;98282.13;5033219;28;20187;-70
2022/11/13 02:48:34;;;;;;;8.60;7.70;;;;;;;7.97;56.72;98282.47;5032670;28;20269;-69
2022/11/13 02:51:00;;;;;;;16.83;8.00;;;;;;;7.87;57.52;98276.22;5030471;28;20188;-70
2022/11/13 02:53:25;;;;;;;9.30;7.23;;;;;;;7.95;57.32;98280.88;5032139;28;20202;-70
2022/11/13 02:55:51;;;;;;;8.63;7.73;;;;;;;7.95;56.76;98279.13;5039861;28;20264;-70
2022/11/13 02:58:16;;;;;;;8.77;7.23;;;;;;;7.97;56.74;98273.78;5034035;28;20214;-69
2022/11/13 03:00:42;;;;;;;8.50;7.60;;;;;;;7.94;57.24;98274.03;5033199;28;20219;-70
2022/11/13 03:03:07;;;;;;;10.87;7.30;;;;;;;7.90;57.20;98268.16;5032914;28;20199;-70
2022/11/13 03:05:33;;;;;;;8.80;7.33;;;;;;;7.94;56.77;98263.56;5030238;28;20616;-68
2022/11/13 03:07:58;;;;;;;10.20;7.43;;;;;;;7.73;57.10;98266.75;5032356;28;20717;-70
2022/11/13 03:10:23;;;;;;;7.77;6.83;;;;;;;7.75;56.66;98259.66;5031578;28;20294;-70
2022/11/13 03:12:49;;;;;;;11.17;8.00;;;;;;;7.72;56.48;98259.84;5033830;28;20314;-71
2022/11/13 03:15:14;;;;;;;9.80;8.03;;;;;;;7.64;57.41;98255.19;5040835;28;20183;-70
2022/11/13 03:17:40;;;;;;;9.57;6.80;;;;;;;7.63;57.52;98261.34;5041965;28;20188;-71
2022/11/13 03:20:06;;;;;;;8.23;7.00;;;;;;;7.71;57.39;98260.81;5034309;28;20180;-69
2022/11/13 03:22:31;;;;;;;10.07;7.30;;;;;;;7.63;56.78;98261.34;5033419;28;20194;-69
2022/11/13 03:24:57;;;;;;;10.10;7.70;;;;;;;7.67;56.56;98256.75;5033263;28;20506;-71
2022/11/13 03:27:22;;;;;;;9.57;7.50;;;;;;;7.56;57.33;98259.28;5032069;28;20191;-70
2022/11/13 03:29:48;;;;;;;11.80;8.13;;;;;;;7.55;57.55;98258.44;5032923;28;20183;-70
2022/11/13 03:32:13;;;;;;;9.00;7.80;;;;;;;7.60;57.22;98258.13;5032746;28;20203;-69
2022/11/13 03:34:39;;;;;;;8.00;6.50;;;;;;;7.59;57.44;98259.06;5032405;28;20672;-70
2022/11/13 03:37:04;;;;;;;8.50;7.50;;;;;;;7.62;56.79;98256.22;5031386;28;20203;-70
2022/11/13 03:39:29;;;;;;;12.70;7.53;;;;;;;7.52;56.84;98259.50;5032203;28;20290;-71
2022/11/13 03:41:55;;;;;;;8.10;7.30;;;;;;;7.59;57.40;98259.06;5035544;28;20261;-70
2022/11/13 03:44:20;;;;;;;8.10;7.10;;;;;;;7.56;56.98;98251.47;5032198;28;20303;-70
2022/11/13 03:46:46;;;;;;;23.33;7.93;;;;;;;7.55;56.67;98261.06;5031369;28;20203;-71
2022/11/13 03:49:11;;;;;;;9.10;7.47;;;;;;;7.42;56.84;98258.47;5032255;28;20643;-70
2022/11/13 03:51:37;;;;;;;9.80;7.93;;;;;;;7.44;56.98;98255.75;5032347;28;20184;-71
2022/11/13 03:54:02;;;;;;;8.70;7.50;;;;;;;7.34;56.75;98253.78;5040141;28;20637;-70
2022/11/13 03:56:28;;;;;;;9.97;7.63;;;;;;;7.37;56.82;98255.34;5027638;28;20227;-69
2022/11/13 03:58:53;;;;;;;11.67;7.40;;;;;;;7.29;56.62;98257.66;5032214;28;20179;-72
2022/11/13 04:01:18;;;;;;;8.63;6.90;;;;;;;7.24;57.21;98252.75;5032220;28;20278;-70
2022/11/13 04:03:44;;;;;;;9.07;7.67;;;;;;;7.23;57.14;98262.34;5031934;28;20246;-71
2022/11/13 04:06:09;;;;;;;10.20;7.80;;;;;;;7.21;56.93;98266.81;5032634;28;20179;-71
2022/11/13 04:08:35;;;;;;;9.33;7.20;;;;;;;7.30;56.67;98256.72;5032640;28;20218;-69
2022/11/13 04:11:11;;;;;;;9.53;7.73;;;;;;;7.36;56.57;98258.88;5031901;28;20192;-69
2022/11/13 04:13:37;;;;;;;8.30;6.63;;;;;;;7.34;57.10;98247.72;5030119;28;20214;-70
2022/11/13 04:16:02;;;;;;;9.00;7.63;;;;;;;7.29;56.88;98242.81;5031641;28;20824;-70
2022/11/13 04:18:28;;;;;;;9.50;7.60;;;;;;;7.23;57.45;98246.69;5030789;28;20258;-70
2022/11/13 04:21:01;;;;;;;8.07;7.10;;;;;;;7.27;57.27;98244.69;5031555;28;20183;-71
2022/11/13 04:23:26;;;;;;;8.37;7.23;;;;;;;7.19;57.02;98240.00;5031205;28;20254;-67
2022/11/13 04:25:52;;;;;;;9.30;7.50;;;;;;;7.26;57.02;98234.38;5031735;28;20418;-70
2022/11/13 04:28:17;;;;;;;7.87;7.07;;;;;;;7.25;57.28;98230.09;5029909;28;20557;-70
2022/11/13 04:30:42;;;;;;;10.37;7.40;;;;;;;7.30;57.25;98235.84;5026765;28;20290;-70
2022/11/13 04:33:08;;;;;;;10.00;7.70;;;;;;;7.21;57.65;98225.09;5031181;28;20249;-70
2022/11/13 04:35:33;;;;;;;9.13;6.83;;;;;;;7.25;57.45;98219.69;5024455;28;20295;-71
2022/11/13 04:37:59;;;;;;;7.70;6.90;;;;;;;7.24;57.69;98213.66;5011724;28;20180;-70
2022/11/13 04:40:24;;;;;;;8.87;7.43;;;;;;;7.14;58.29;98218.66;5034961;28;20215;-70
2022/11/13 04:42:50;;;;;;;9.83;7.87;;;;;;;7.08;57.76;98219.06;5031654;28;20231;-70
2022/11/13 04:45:17;;;;;;;10.57;7.87;;;;;;;7.09;58.38;98210.31;5030738;28;20841;-70
2022/11/13 04:47:43;;;;;;;15.50;9.00;;;;;;;7.15;58.71;98209.91;5029869;28;20638;-71
2022/11/13 04:50:08;;;;;;;12.43;8.93;;;;;;;7.21;59.06;98213.84;5030695;28;20516;-69
2022/11/13 04:52:34;;;;;;;22.23;10.57;;;;;;;7.27;59.72;98215.19;5026473;28;20188;-68
2022/11/13 04:54:59;;;;;;;24.83;10.80;;;;;;;7.20;59.96;98213.00;5027636;28;20283;-70
2022/11/13 04:57:25;;;;;;;25.00;12.70;;;;;;;7.07;60.96;98201.75;5029044;28;20201;-69
2022/11/13 04:59:50;;;;;;;20.13;10.63;;;;;;;7.16;61.64;98206.34;5030784;28;20194;-70
2022/11/13 05:02:16;;;;;;;15.67;10.80;;;;;;;6.92;61.77;98203.66;5030257;28;20557;-70
2022/11/13 05:04:41;;;;;;;40.20;10.43;;;;;;;6.96;61.74;98194.69;5025673;28;20298;-70
2022/11/13 05:07:06;;;;;;;33.07;10.70;;;;;;;6.99;61.68;98198.84;5034182;28;20219;-70
2022/11/13 05:09:32;;;;;;;19.00;9.80;;;;;;;7.05;61.40;98194.03;5026612;28;20191;-69
2022/11/13 05:11:57;;;;;;;17.83;10.37;;;;;;;7.12;61.11;98191.84;5026805;28;20666;-71
2022/11/13 05:14:23;;;;;;;19.93;10.60;;;;;;;7.10;61.11;98188.50;5046044;28;21715;-70
2022/11/13 05:16:51;;;;;;;13.80;10.27;;;;;;;6.99;60.98;98183.19;5030405;28;20203;-69
2022/11/13 05:19:16;;;;;;;17.30;9.73;;;;;;;6.96;61.33;98183.41;5030473;28;20215;-69
2022/11/13 05:21:42;;;;;;;19.47;10.77;;;;;;;6.97;61.17;98185.06;5035428;28;20461;-69
2022/11/13 05:24:10;;;;;;;17.53;10.10;;;;;;;6.90;61.37;98189.88;5030132;28;20207;-69
2022/11/13 05:26:38;;;;;;;41.30;9.97;;;;;;;6.90;61.20;98180.31;5029830;28;20186;-70
2022/11/13 05:29:04;;;;;;;17.83;10.40;;;;;;;6.97;60.57;98185.06;5033722;28;20510;-71
2022/11/13 05:31:30;;;;;;;16.90;10.37;;;;;;;6.88;60.37;98176.97;5029189;28;20502;-70
2022/11/13 05:33:55;;;;;;;20.63;9.30;;;;;;;6.82;60.60;98172.16;5030238;28;20215;-71
2022/11/13 05:36:21;;;;;;;10.93;8.90;;;;;;;6.85;59.87;98177.16;5032164;28;20207;-71
2022/11/13 05:38:47;;;;;;;10.40;9.30;;;;;;;6.82;60.23;98169.56;5029320;28;20670;-70
2022/11/13 05:41:18;;;;;;;10.47;8.63;;;;;;;6.81;60.31;98178.31;5030897;28;20187;-70
2022/11/13 05:43:44;;;;;;;12.17;9.80;;;;;;;6.86;59.86;98168.41;5029654;28;20453;-70
2022/11/13 05:46:20;;;;;;;11.00;8.87;;;;;;;6.91;59.70;98176.75;5037561;28;20840;-70
2022/11/13 05:48:46;;;;;;;12.03;9.40;;;;;;;6.73;60.01;98173.63;5030078;28;20478;-70
2022/11/13 05:51:17;;;;;;;12.73;9.33;;;;;;;6.78;59.84;98175.94;5029266;28;20422;-72
2022/11/13 05:53:43;;;;;;;13.63;9.40;;;;;;;6.68;60.59;98180.09;5027022;28;20459;-69
2022/11/13 05:56:11;;;;;;;13.10;8.60;;;;;;;6.55;60.04;98170.47;5029388;28;20458;-70
2022/11/13 05:58:37;;;;;;;11.33;8.97;;;;;;;6.64;60.62;98176.03;5031643;28;20245;-70
2022/11/13 06:01:05;;;;;;;11.27;9.50;;;;;;;6.55;60.67;98177.47;5034844;28;20524;-70
2022/11/13 06:03:31;;;;;;;11.00;9.40;;;;;;;6.56;60.57;98182.56;5023287;28;20442;-72
2022/11/13 06:05:57;;;;;;;21.23;10.10;;;;;;;6.56;60.61;98179.97;5036279;28;21102;-71
2022/11/13 06:08:22;;;;;;;18.93;9.77;;;;;;;6.26;60.53;98185.44;5032230;28;20226;-70
2022/11/13 06:10:48;;;;;;;12.83;9.03;;;;;;;6.33;60.83;98175.47;5038187;28;20465;-70
2022/11/13 06:13:13;;;;;;;9.60;8.40;;;;;;;6.41;60.56;98183.63;5036084;28;20469;-71
2022/11/13 06:15:39;;;;;;;14.83;8.37;;;;;;;6.33;60.37;98171.09;5040836;28;20214;-70
2022/11/13 06:18:04;;;;;;;11.10;8.97;;;;;;;6.40;60.10;98181.94;5031793;28;20187;-70
2022/11/13 06:20:30;;;;;;;11.60;8.37;;;;;;;6.42;60.74;98185.28;5036228;28;20180;-70
2022/11/13 06:22:56;;;;;;;16.57;8.87;;;;;;;6.18;59.57;98175.53;5033474;28;20203;-69
2022/11/13 06:25:22;;;;;;;11.27;8.60;;;;;;;6.30;60.09;98177.31;5031609;28;20188;-70
2022/11/13 06:27:47;;;;;;;9.80;7.93;;;;;;;6.49;59.88;98168.31;5036128;28;20423;-70
2022/11/13 06:30:13;;;;;;;10.13;8.17;;;;;;;6.53;59.82;98164.56;5041866;28;20266;-70
2022/11/13 06:32:38;;;;;;;10.17;8.80;;;;;;;6.45;60.36;98166.84;5033587;28;20576;-70
2022/11/13 06:35:04;;;;;;;11.20;9.17;;;;;;;6.48;60.83;98158.81;5044972;28;20285;-70
2022/11/13 06:37:30;;;;;;;11.30;9.30;;;;;;;6.60;61.47;98155.38;5015392;28;20207;-69
2022/11/13 06:39:55;;;;;;;33.53;10.40;;;;;;;6.61;61.12;98156.25;5033553;28;20661;-71
2022/11/13 06:42:20;;;;;;;81.47;13.10;;;;;;;6.67;61.60;98148.00;5033923;28;20658;-70
2022/11/13 06:44:46;;;;;;;20.60;11.83;;;;;;;6.71;62.07;98154.66;5033847;28;20231;-70
2022/11/13 06:47:11;;;;;;;35.53;11.13;;;;;;;6.77;62.27;98148.19;5028884;28;20271;-71
2022/11/13 06:49:37;;;;;;;22.00;11.33;;;;;;;6.84;62.26;98148.63;5041451;28;20266;-70
2022/11/13 06:52:02;;;;;;;15.20;11.30;;;;;;;6.83;61.90;98139.94;5031698;28;20211;-70
2022/11/13 06:54:28;;;;;;;17.30;10.33;;;;;;;6.71;62.34;98140.78;5033123;28;20195;-70
2022/11/13 06:56:53;;;;;;;14.33;11.10;;;;;;;6.88;62.22;98143.09;5032852;28;20287;-70
2022/11/13 06:59:18;;;;;;;14.90;10.00;;;;;;;6.99;62.24;98141.50;5032215;28;20740;-69
2022/11/13 07:01:44;;;;;;;25.37;12.17;;;;;;;7.00;62.32;98132.75;5027718;28;20732;-69
2022/11/13 07:04:11;;;;;;;21.70;12.03;;;;;;;6.92;62.14;98135.88;5033280;28;20644;-70
2022/11/13 07:06:36;;;;;;;69.57;12.33;;;;;;;6.88;62.23;98142.22;5040091;28;20560;-70
2022/11/13 07:09:02;;;;;;;14.47;10.67;;;;;;;6.94;62.64;98128.78;5033263;28;20426;-68
2022/11/13 07:11:27;;;;;;;16.23;10.87;;;;;;;6.93;62.80;98129.72;5032984;28;20183;-69
2022/11/13 07:13:53;;;;;;;22.83;11.40;;;;;;;6.96;63.58;98120.84;5040121;28;20239;-73
2022/11/13 07:16:18;;;;;;;23.70;12.30;;;;;;;6.96;63.20;98123.47;5026681;28;20211;-71
2022/11/13 07:18:51;;;;;;;18.20;11.43;;;;;;;6.97;62.91;98119.91;5024603;28;20187;-71
2022/11/13 07:21:17;;;;;;;15.00;11.33;;;;;;;7.13;63.20;98117.06;5025052;28;20219;-71
2022/11/13 07:23:43;;;;;;;18.63;13.03;;;;;;;7.14;62.69;98116.97;5033417;28;20446;-71
2022/11/13 07:26:09;;;;;;;19.47;13.90;;;;;;;7.21;63.20;98114.75;5032675;28;20553;-71
2022/11/13 07:28:35;;;;;;;17.70;12.60;;;;;;;7.28;62.80;98117.78;5030808;28;20420;-71
2022/11/13 07:31:01;;;;;;;14.70;11.37;;;;;;;7.31;62.81;98117.56;5030487;28;20422;-70
2022/11/13 07:33:26;;;;;;;18.60;11.57;;;;;;;7.31;62.87;98120.16;5032809;28;20290;-73
2022/11/13 07:35:53;;;;;;;31.90;12.00;;;;;;;7.23;62.57;98111.09;5032742;28;20283;-71
2022/11/13 07:38:19;;;;;;;13.77;10.73;;;;;;;7.20;64.04;98103.47;5030530;28;20629;-72
2022/11/13 07:40:44;;;;;;;29.30;11.90;;;;;;;7.24;63.78;98109.34;5033671;28;20512;-70
2022/11/13 07:43:10;;;;;;;14.87;11.20;;;;;;;7.20;63.73;98108.69;5033038;28;20260;-70
2022/11/13 07:45:35;;;;;;;20.10;11.10;;;;;;;7.27;64.14;98103.88;5033233;28;20207;-71
2022/11/13 07:48:01;;;;;;;23.93;12.93;;;;;;;7.33;63.33;98100.84;5032366;28;20184;-70
2022/11/13 07:50:28;;;;;;;146.83;15.90;;;;;;;7.37;64.13;98098.84;5032385;28;20588;-73
2022/11/13 07:52:58;;;;;;;25.77;12.87;;;;;;;7.44;63.74;98094.84;5031077;28;20423;-71
2022/11/13 07:55:23;;;;;;;16.80;11.53;;;;;;;7.52;63.59;98097.75;5022713;28;20462;-73
2022/11/13 07:57:49;;;;;;;34.73;13.10;;;;;;;7.52;63.76;98089.94;5017404;28;20850;-71
2022/11/13 08:00:15;;;;;;;77.00;13.60;;;;;;;7.55;63.97;98086.25;5018816;28;20721;-73
2022/11/13 08:02:40;;;;;;;27.23;12.30;;;;;;;7.57;63.56;98084.38;5017675;28;20195;-71
2022/11/13 08:05:06;;;;;;;18.40;13.07;;;;;;;7.59;63.91;98076.41;5017710;28;20419;-72
2022/11/13 08:07:31;;;;;;;21.13;11.50;;;;;;;7.56;64.01;98087.09;5021786;28;20173;-72
2022/11/13 08:09:57;;;;;;;14.50;11.20;;;;;;;7.59;63.83;98092.06;5014675;28;20767;-71
2022/11/13 08:12:22;;;;;;;16.43;12.23;;;;;;;7.61;63.69;98091.03;5021134;28;20721;-72
2022/11/13 08:14:48;;;;;;;30.03;11.10;;;;;;;7.63;63.56;98086.50;5035632;28;20609;-71
2022/11/13 08:17:13;;;;;;;18.80;12.07;;;;;;;7.66;63.29;98077.66;5022243;28;20315;-70
2022/11/13 08:19:39;;;;;;;40.23;13.10;;;;;;;7.64;63.11;98075.13;5029240;28;20606;-74
2022/11/13 08:22:05;;;;;;;31.93;11.60;;;;;;;7.66;63.36;98062.81;5029256;28;20427;-70
2022/11/13 08:24:30;;;;;;;18.40;12.00;;;;;;;7.67;63.40;98071.50;5031488;28;20214;-70
2022/11/13 08:26:56;;;;;;;18.60;11.70;;;;;;;7.76;62.92;98070.81;5036448;28;20205;-70
2022/11/13 08:29:22;;;;;;;13.70;10.93;;;;;;;7.79;62.66;98065.38;5032086;28;20211;-71
2022/11/13 08:31:47;;;;;;;14.97;10.50;;;;;;;7.82;63.05;98049.47;5032092;28;20569;-70
2022/11/13 08:34:13;;;;;;;15.10;10.10;;;;;;;7.91;62.67;98060.19;5031386;28;20315;-70
2022/11/13 08:36:38;;;;;;;14.90;10.30;;;;;;;7.95;62.82;98054.59;5031347;28;20208;-71
2022/11/13 08:39:04;;;;;;;45.50;11.50;;;;;;;7.95;62.24;98053.75;5031046;28;20183;-73
2022/11/13 08:41:29;;;;;;;41.23;12.10;;;;;;;7.94;62.51;98049.50;5033907;28;20204;-70
2022/11/13 08:43:55;;;;;;;92.80;16.13;;;;;;;7.76;62.92;98046.47;5033277;28;20254;-72
2022/11/13 08:46:20;;;;;;;25.50;11.50;;;;;;;7.98;63.26;98056.16;5032227;28;20290;-71
2022/11/13 08:48:46;;;;;;;14.07;10.27;;;;;;;7.93;63.22;98042.63;5031315;28;20702;-72
2022/11/13 08:51:11;;;;;;;25.00;11.00;;;;;;;7.91;63.17;98045.34;5032306;28;20202;-72
2022/11/13 08:53:36;;;;;;;13.13;10.40;;;;;;;8.03;63.12;98042.75;5029258;28;20283;-72
2022/11/13 08:56:02;;;;;;;12.93;11.53;;;;;;;8.09;63.16;98043.13;5027955;28;20211;-73
2022/11/13 08:58:27;;;;;;;15.47;11.47;;;;;;;8.19;63.56;98045.06;5030987;28;20183;-71
2022/11/13 09:00:58;;;;;;;14.03;10.40;;;;;;;8.15;62.95;98036.59;5032115;28;20214;-70
2022/11/13 09:03:23;;;;;;;15.03;11.13;;;;;;;8.18;63.14;98031.16;5039639;28;20308;-71
2022/11/13 09:05:49;;;;;;;15.00;11.80;;;;;;;8.35;63.13;98036.88;5031457;28;20506;-70
2022/11/13 09:08:14;;;;;;;20.87;13.13;;;;;;;8.40;63.24;98034.72;5029981;28;20242;-73
2022/11/13 09:10:40;;;;;;;18.60;12.67;;;;;;;8.54;63.72;98031.91;5030236;28;20652;-71
2022/11/13 09:13:08;;;;;;;16.50;12.70;;;;;;;8.60;63.11;98027.97;5022827;28;20207;-72
2022/11/13 09:15:36;;;;;;;28.80;18.47;;;;;;;8.75;63.08;98029.41;5019247;28;20196;-69
2022/11/13 09:18:02;;;;;;;31.43;13.53;;;;;;;8.72;61.99;98034.88;5028619;28;20921;-70
2022/11/13 09:20:29;;;;;;;20.37;12.93;;;;;;;8.80;62.42;98026.41;5031100;28;20479;-68
2022/11/13 09:22:58;;;;;;;14.73;12.60;;;;;;;8.75;63.04;98028.59;5031482;28;20215;-73
2022/11/13 09:25:23;;;;;;;21.97;16.20;;;;;;;8.84;62.61;98024.38;5031274;28;20519;-72
2022/11/13 09:27:57;;;;;;;18.20;13.90;;;;;;;8.93;62.02;98031.53;5029160;28;20945;-75
2022/11/13 09:30:23;;;;;;;19.00;13.83;;;;;;;9.00;62.00;98029.25;5029652;28;20191;-74
2022/11/13 09:32:53;;;;;;;15.50;13.40;;;;;;;9.13;62.29;98027.31;5031351;28;20564;-72
2022/11/13 09:35:35;;;;;;;14.53;12.77;;;;;;;9.44;61.96;98018.78;5030419;28;20446;-73
2022/11/13 09:38:05;;;;;;;21.77;15.00;;;;;;;9.80;60.59;98025.38;5027088;28;20423;-73
2022/11/13 09:40:58;;;;;;;16.60;13.73;;;;;;;9.94;60.39;98021.63;5019199;28;20841;-71
2022/11/13 09:43:35;;;;;;;52.73;32.87;;;;;;;10.53;59.49;98006.22;5019401;28;20913;-73
2022/11/13 09:46:05;;;;;;;31.53;25.33;;;;;;;11.11;57.49;98009.94;5021161;28;20442;-73
2022/11/13 09:48:39;;;;;;;15.20;13.53;;;;;;;11.44;56.53;98004.44;5017217;28;20467;-73
2022/11/13 09:51:26;;;;;;;14.47;12.97;;;;;;;11.96;55.16;98009.38;5017507;28;20504;-74
2022/11/13 09:53:52;;;;;;;12.43;11.00;;;;;;;12.21;53.81;98004.50;5026174;28;20449;-74
2022/11/13 09:56:31;;;;;;;12.57;11.30;;;;;;;12.48;52.89;98003.72;5018167;28;20455;-73
2022/11/13 09:59:05;;;;;;;12.43;11.13;;;;;;;12.72;51.43;98018.97;5025007;28;20603;-73
2022/11/13 10:01:40;;;;;;;12.50;11.10;;;;;;;12.90;50.94;98005.03;5012673;28;20438;-74
2022/11/13 10:04:07;;;;;;;12.20;10.90;;;;;;;13.44;50.31;98009.53;5023300;28;20507;-73
2022/11/13 10:06:38;;;;;;;12.07;10.80;;;;;;;13.62;49.47;98002.44;5023764;28;20418;-72
2022/11/13 10:09:13;;;;;;;12.83;10.53;;;;;;;14.07;48.65;97992.72;5021100;28;20425;-74
2022/11/13 10:11:43;;;;;;;12.07;10.60;;;;;;;14.36;47.65;97998.66;5022638;28;20426;-74
2022/11/13 10:14:22;;;;;;;10.93;9.83;;;;;;;14.73;46.77;97995.72;5028753;28;20941;-74
2022/11/13 10:16:54;;;;;;;12.40;11.10;;;;;;;14.90;45.63;97991.31;5021882;28;20455;-74
2022/11/13 10:19:48;;;;;;;11.00;9.57;;;;;;;15.09;45.14;97999.94;5027347;28;20418;-73
2022/11/13 10:22:18;;;;;;;10.97;9.70;;;;;;;15.49;45.25;97995.72;5028547;28;20426;-73
2022/11/13 10:24:45;;;;;;;11.10;9.87;;;;;;;15.73;44.10;97980.00;5029017;28;20453;-75
2022/11/13 10:27:12;;;;;;;9.90;8.67;;;;;;;16.05;43.30;97983.66;5020955;28;20441;-72
2022/11/13 10:29:38;;;;;;;9.30;8.40;;;;;;;16.32;45.24;97974.47;5020749;28;20921;-72
2022/11/13 10:32:20;;;;;;;13.70;9.70;;;;;;;16.59;43.46;97980.34;5021209;28;20415;-73
2022/11/13 10:35:03;;;;;;;9.07;8.17;;;;;;;16.78;42.89;97972.97;5017346;28;20462;-73
2022/11/13 10:38:02;;;;;;;9.30;8.30;;;;;;;16.91;40.42;97970.56;5020736;28;20933;-71
2022/11/13 10:40:31;;;;;;;11.80;9.27;;;;;;;16.79;39.84;97969.31;5028332;28;20505;-71
2022/11/13 10:43:05;;;;;;;10.93;9.77;;;;;;;16.51;40.38;97960.03;5016009;28;20797;-72
2022/11/13 10:45:30;;;;;;;17.50;15.23;;;;;;;16.32;40.51;97963.91;5017457;28;20427;-73
2022/11/13 10:47:56;;;;;;;14.20;12.80;;;;;;;16.65;41.32;97958.47;5024837;28;20529;-73
2022/11/13 10:50:24;;;;;;;36.27;25.63;;;;;;;17.02;40.63;97951.66;5030797;28;20626;-70
2022/11/13 10:52:51;;;;;;;21.93;15.63;;;;;;;17.28;39.90;97952.34;5029611;28;20577;-71
2022/11/13 10:55:37;;;;;;;21.80;16.73;;;;;;;17.48;39.74;97942.91;5027872;28;20428;-73
2022/11/13 10:58:11;;;;;;;12.10;10.90;;;;;;;17.71;39.16;97934.06;5029841;28;20437;-71
2022/11/13 11:00:38;;;;;;;38.60;29.63;;;;;;;17.80;40.93;97930.38;5024965;28;21011;-74
2022/11/13 11:03:08;;;;;;;19.93;16.37;;;;;;;18.09;41.78;97922.63;5023207;28;20835;-73
2022/11/13 11:05:33;;;;;;;17.20;14.87;;;;;;;18.44;38.52;97908.78;5015065;28;20427;-72
2022/11/13 11:07:59;;;;;;;38.53;30.27;;;;;;;18.31;37.36;97909.44;5015754;28;20918;-72
2022/11/13 11:10:30;;;;;;;16.50;12.90;;;;;;;18.26;37.50;97897.56;5024749;28;20184;-71
2022/11/13 11:13:00;;;;;;;10.17;9.17;;;;;;;18.50;37.67;97895.59;5020002;28;20212;-73
2022/11/13 11:15:29;;;;;;;10.87;9.27;;;;;;;18.55;37.96;97884.44;5015600;28;20460;-72
2022/11/13 11:18:03;;;;;;;9.00;8.17;;;;;;;18.77;37.09;97887.94;5016889;28;20431;-73
2022/11/13 11:20:42;;;;;;;10.10;8.40;;;;;;;18.88;37.08;97882.13;5020803;28;20834;-70
2022/11/13 11:23:13;;;;;;;9.33;8.40;;;;;;;19.09;37.33;97871.72;5014525;28;20473;-70
2022/11/13 11:25:53;;;;;;;14.13;12.03;;;;;;;19.18;36.66;97867.91;5013709;28;20416;-72
2022/11/13 11:28:41;;;;;;;11.50;10.30;;;;;;;19.10;36.11;97868.03;5014189;28;20459;-74
2022/11/13 11:31:21;;;;;;;9.80;8.83;;;;;;;19.06;35.75;97864.94;5015267;28;20443;-72